Time;durP1;ratioP1;P1;durP2;ratioP2;P2;SDS_P1;SDS_P2;PMS_P1;PMS_P2;Temp;Humidity;BMP_temperature;BMP_pressure;BME280_temperature;BME280_humidity;BME280_pressure;Samples;Min_cycle;Max_cycle;Signal;HPM_P1;HPM_P2
2022/10/10 00:02:18;;;;;;;7.93;5.28;;;;;;;12.22;50.92;101440.19;4966887;28;124313;-71
2022/10/10 00:04:45;;;;;;;8.80;5.32;;;;;;;12.22;51.07;101434.88;4969264;28;114043;-71
2022/10/10 00:07:13;;;;;;;10.20;5.25;;;;;;;12.18;51.14;101433.25;4969246;28;114448;-70
2022/10/10 00:09:39;;;;;;;12.68;5.20;;;;;;;12.14;50.91;101434.31;4951221;28;124144;-70
2022/10/10 00:12:06;;;;;;;8.38;5.20;;;;;;;12.12;50.96;101432.69;4968425;28;123803;-70
2022/10/10 00:14:33;;;;;;;8.98;5.15;;;;;;;12.10;51.27;101429.22;4966588;28;114203;-70
2022/10/10 00:17:01;;;;;;;9.38;5.15;;;;;;;12.08;51.16;101431.94;4968984;28;114584;-70
2022/10/10 00:19:28;;;;;;;9.15;5.15;;;;;;;12.07;51.24;101430.19;4967706;28;123043;-70
2022/10/10 00:21:55;;;;;;;6.68;5.10;;;;;;;12.06;51.58;101431.16;4949459;28;123341;-70
2022/10/10 00:24:22;;;;;;;6.85;5.22;;;;;;;12.03;51.48;101431.25;4968873;28;114323;-70
2022/10/10 00:26:49;;;;;;;8.68;5.45;;;;;;;12.03;51.51;101428.59;4951053;28;114737;-70
2022/10/10 00:29:15;;;;;;;12.88;5.15;;;;;;;12.00;51.75;101418.13;4949658;28;123336;-70
2022/10/10 00:31:42;;;;;;;8.60;4.85;;;;;;;11.98;51.83;101420.84;4949751;28;123607;-70
2022/10/10 00:34:09;;;;;;;7.82;5.10;;;;;;;11.96;51.86;101416.50;4967118;28;114186;-70
2022/10/10 00:36:36;;;;;;;8.50;5.50;;;;;;;11.94;51.72;101418.38;4968762;28;114338;-70
2022/10/10 00:39:03;;;;;;;10.60;5.40;;;;;;;11.93;51.85;101421.97;4950661;28;124345;-70
2022/10/10 00:41:30;;;;;;;7.78;5.13;;;;;;;11.91;51.76;101418.50;4966431;28;124516;-70
2022/10/10 00:44:09;;;;;;;7.75;5.35;;;;;;;11.88;52.06;101415.03;4951446;28;115573;-70
2022/10/10 00:46:36;;;;;;;9.25;4.95;;;;;;;11.87;51.92;101413.28;4950453;28;115020;-70
2022/10/10 00:49:09;;;;;;;8.15;5.00;;;;;;;11.85;52.23;101420.44;4968667;28;124142;-70
2022/10/10 00:51:36;;;;;;;9.13;5.00;;;;;;;11.85;52.02;101415.16;4934642;28;122855;-70
2022/10/10 00:54:08;;;;;;;7.78;5.43;;;;;;;11.84;52.23;101417.84;4967034;28;114264;-70
2022/10/10 00:56:52;;;;;;;7.70;5.20;;;;;;;11.82;52.38;101417.91;4950263;28;113798;-70
2022/10/10 00:59:19;;;;;;;7.85;5.30;;;;;;;11.81;52.24;101410.91;4949865;28;123694;-71
2022/10/10 01:01:46;;;;;;;7.13;4.90;;;;;;;11.80;52.24;101406.50;4968586;28;122690;-71
2022/10/10 01:04:30;;;;;;;7.63;5.55;;;;;;;11.78;52.35;101403.03;4964629;28;113268;-70
2022/10/10 01:06:58;;;;;;;8.00;5.43;;;;;;;11.77;52.52;101401.34;4967707;28;114257;-70
2022/10/10 01:09:27;;;;;;;6.18;5.10;;;;;;;11.76;52.54;101398.75;4966415;28;124307;-70
2022/10/10 01:11:59;;;;;;;10.45;5.72;;;;;;;11.75;52.53;101400.50;4968000;28;124654;-70
2022/10/10 01:15:05;;;;;;;11.27;5.60;;;;;;;11.72;52.41;101398.00;4967043;28;114757;-70
2022/10/10 01:17:39;;;;;;;5.90;4.78;;;;;;;11.69;52.31;101398.13;4906719;28;113643;-70
2022/10/10 01:20:43;;;;;;;7.47;5.07;;;;;;;11.66;52.57;101392.94;4939847;28;124748;-70
2022/10/10 01:23:16;;;;;;;8.40;5.15;;;;;;;11.64;52.37;101400.09;4966463;28;123611;-70
2022/10/10 01:26:15;;;;;;;9.05;5.03;;;;;;;11.61;52.64;101386.97;4951421;28;113456;-70
2022/10/10 01:29:04;;;;;;;10.32;5.07;;;;;;;11.60;52.57;101385.22;4949962;28;112855;-70
2022/10/10 01:31:36;;;;;;;9.18;5.78;;;;;;;11.57;52.81;101382.72;4970377;28;124333;-70
2022/10/10 01:34:24;;;;;;;8.32;5.10;;;;;;;11.55;52.77;101389.88;4952879;28;122741;-72
2022/10/10 01:37:00;;;;;;;8.38;5.32;;;;;;;11.54;52.71;101388.13;4968518;28;115080;-72
2022/10/10 01:39:59;;;;;;;10.43;5.63;;;;;;;11.50;52.43;101388.25;4951935;28;114586;-70
2022/10/10 01:42:36;;;;;;;11.25;5.78;;;;;;;11.48;52.87;101383.94;4969670;28;123944;-70
2022/10/10 01:45:04;;;;;;;8.73;5.50;;;;;;;11.47;52.80;101383.06;4950772;28;123857;-70
2022/10/10 01:47:31;;;;;;;8.93;5.40;;;;;;;11.45;52.78;101379.63;4970945;28;114085;-71
2022/10/10 01:50:02;;;;;;;8.88;5.45;;;;;;;11.44;52.85;101377.03;4952841;28;113406;-70
2022/10/10 01:52:48;;;;;;;7.40;5.15;;;;;;;11.43;52.89;101375.28;4970220;28;124700;-70
2022/10/10 01:55:31;;;;;;;6.53;4.90;;;;;;;11.40;52.62;101370.97;4965592;28;124183;-70
2022/10/10 01:58:14;;;;;;;9.05;5.63;;;;;;;11.38;52.88;101367.53;4965683;28;114556;-70
2022/10/10 02:00:59;;;;;;;11.90;6.30;;;;;;;11.37;53.10;101365.78;4969991;28;113943;-70
2022/10/10 02:03:30;;;;;;;8.83;5.77;;;;;;;11.36;53.09;101358.78;4968252;28;123895;-70
2022/10/10 02:06:11;;;;;;;13.55;6.05;;;;;;;11.34;53.18;101360.63;4968104;28;124284;-70
2022/10/10 02:08:53;;;;;;;10.82;5.80;;;;;;;11.33;53.40;101358.88;4969450;28;114400;-73
2022/10/10 02:11:22;;;;;;;8.80;5.97;;;;;;;11.32;53.22;101357.19;4969448;28;113958;-71
2022/10/10 02:13:57;;;;;;;10.13;5.90;;;;;;;11.30;53.25;101353.69;4970240;28;123832;-72
2022/10/10 02:16:28;;;;;;;8.57;5.53;;;;;;;11.28;53.09;101345.81;4967578;28;124778;-72
2022/10/10 02:18:58;;;;;;;9.90;5.60;;;;;;;11.28;53.20;101347.59;4965989;28;114158;-72
2022/10/10 02:21:26;;;;;;;10.15;5.95;;;;;;;11.26;53.24;101336.19;4971367;28;115833;-72
2022/10/10 02:23:57;;;;;;;10.55;5.82;;;;;;;11.23;53.17;101336.31;4950138;28;122972;-72
2022/10/10 02:26:27;;;;;;;8.10;5.53;;;;;;;11.21;53.42;101338.19;4979772;28;124754;-72
2022/10/10 02:29:07;;;;;;;9.05;5.93;;;;;;;11.19;53.14;101337.34;4987280;28;117732;-72
2022/10/10 02:31:42;;;;;;;11.52;6.35;;;;;;;11.16;53.39;101340.13;4960557;28;114209;-70
2022/10/10 02:34:15;;;;;;;13.38;6.15;;;;;;;11.13;53.13;101334.94;4970077;28;123921;-70
2022/10/10 02:36:46;;;;;;;10.25;6.07;;;;;;;11.09;53.18;101335.09;4968876;28;124120;-70
2022/10/10 02:39:16;;;;;;;10.48;6.10;;;;;;;11.08;53.48;101333.34;4969903;28;114381;-70
2022/10/10 02:41:45;;;;;;;9.18;6.47;;;;;;;11.06;53.57;101329.91;4970843;28;113920;-70
2022/10/10 02:44:13;;;;;;;8.95;6.15;;;;;;;11.04;53.60;101331.75;4952769;28;124246;-70
2022/10/10 02:46:40;;;;;;;11.18;6.45;;;;;;;11.05;53.51;101330.81;4970442;28;124168;-70
2022/10/10 02:49:07;;;;;;;10.73;6.57;;;;;;;11.04;54.03;101331.75;4969605;28;114214;-70
2022/10/10 02:51:34;;;;;;;12.57;6.60;;;;;;;11.03;54.04;101335.31;4969823;28;116810;-70
2022/10/10 02:54:01;;;;;;;12.93;7.15;;;;;;;11.03;53.87;101327.34;4969483;28;123876;-70
2022/10/10 02:56:28;;;;;;;10.50;6.57;;;;;;;11.03;54.24;101324.69;4969324;28;123728;-70
2022/10/10 02:58:56;;;;;;;11.52;7.03;;;;;;;11.01;54.21;101321.25;4966960;28;114570;-70
2022/10/10 03:01:23;;;;;;;11.02;6.78;;;;;;;11.02;54.16;101317.69;4969555;28;113785;-70
2022/10/10 03:03:50;;;;;;;12.50;6.80;;;;;;;11.03;54.28;101314.09;4969113;28;124109;-70
2022/10/10 03:06:17;;;;;;;11.45;6.80;;;;;;;11.01;54.12;101310.66;4968905;28;123903;-70
2022/10/10 03:08:44;;;;;;;14.35;6.50;;;;;;;11.00;54.16;101308.94;4946719;28;114125;-70
2022/10/10 03:11:11;;;;;;;16.45;6.97;;;;;;;11.00;54.51;101308.94;4952060;28;113305;-70
2022/10/10 03:13:38;;;;;;;10.93;6.88;;;;;;;11.00;54.57;101306.28;4951061;28;123992;-70
2022/10/10 03:16:05;;;;;;;8.90;6.40;;;;;;;10.99;54.46;101307.19;4948391;28;124151;-71
2022/10/10 03:18:32;;;;;;;10.68;5.95;;;;;;;10.99;54.30;101312.50;4971612;28;114850;-71
2022/10/10 03:20:59;;;;;;;15.07;6.53;;;;;;;10.99;54.61;101311.66;4969314;28;114695;-70
2022/10/10 03:23:26;;;;;;;11.20;6.18;;;;;;;10.98;54.36;101308.13;4968391;28;123839;-70
2022/10/10 03:25:53;;;;;;;12.88;6.88;;;;;;;10.98;54.33;101310.78;4967904;28;124016;-70
2022/10/10 03:28:21;;;;;;;13.18;6.63;;;;;;;10.98;54.76;101304.59;4951272;28;114061;-71
2022/10/10 03:30:48;;;;;;;9.65;5.95;;;;;;;10.97;54.52;101308.19;4952267;28;113608;-70
2022/10/10 03:33:15;;;;;;;10.60;6.07;;;;;;;10.95;54.63;101305.59;4969186;28;123888;-70
2022/10/10 03:35:42;;;;;;;9.25;6.15;;;;;;;10.94;54.50;101303.84;4967974;28;123151;-70
2022/10/10 03:38:11;;;;;;;16.63;6.45;;;;;;;10.93;54.71;101302.16;4971625;28;114293;-70
2022/10/10 03:40:42;;;;;;;9.73;6.25;;;;;;;10.92;54.41;101300.41;4955941;28;113041;-70
2022/10/10 03:43:11;;;;;;;9.25;6.43;;;;;;;10.91;54.58;101298.69;4954861;28;124505;-70
2022/10/10 03:45:41;;;;;;;13.65;6.25;;;;;;;10.91;54.76;101304.00;4968974;28;124322;-70
2022/10/10 03:48:09;;;;;;;13.13;6.40;;;;;;;10.89;54.89;101297.91;4974073;28;114318;-70
2022/10/10 03:50:37;;;;;;;17.48;6.70;;;;;;;10.88;54.62;101301.44;4971338;28;114093;-70
2022/10/10 03:53:04;;;;;;;13.90;6.43;;;;;;;10.88;54.75;101302.31;4956909;28;123422;-71
2022/10/10 03:55:32;;;;;;;11.65;6.03;;;;;;;10.88;54.70;101298.81;4971263;28;122940;-71
2022/10/10 03:57:59;;;;;;;9.20;6.47;;;;;;;10.88;54.84;101298.81;4969374;28;113657;-71
2022/10/10 04:00:26;;;;;;;10.90;6.25;;;;;;;10.86;55.05;101300.66;4951895;28;113427;-71
2022/10/10 04:02:53;;;;;;;12.45;6.95;;;;;;;10.84;55.15;101297.19;4950992;28;123257;-71
2022/10/10 04:05:20;;;;;;;11.57;6.47;;;;;;;10.83;55.08;101296.34;4958477;28;124045;-71
2022/10/10 04:07:47;;;;;;;9.93;6.43;;;;;;;10.83;55.10;101300.75;4934807;28;113951;-71
2022/10/10 04:10:14;;;;;;;11.80;6.43;;;;;;;10.84;55.09;101297.19;4949029;28;112821;-71
2022/10/10 04:12:41;;;;;;;10.25;5.53;;;;;;;10.83;55.31;101300.75;4967070;28;124690;-71
2022/10/10 04:15:09;;;;;;;12.10;6.20;;;;;;;10.83;55.63;101298.09;4949092;28;124062;-71
2022/10/10 04:17:36;;;;;;;14.52;5.75;;;;;;;10.84;55.45;101297.19;4951826;28;115802;-71
2022/10/10 04:20:03;;;;;;;11.90;6.03;;;;;;;10.85;55.32;101298.91;4949979;28;112671;-71
2022/10/10 04:22:30;;;;;;;7.80;5.30;;;;;;;10.87;55.49;101291.78;4968357;28;124779;-71
2022/10/10 04:24:57;;;;;;;11.25;5.80;;;;;;;10.88;55.80;101298.81;4948430;28;124437;-72
2022/10/10 04:27:24;;;;;;;10.02;5.82;;;;;;;10.90;55.80;101294.31;4968969;28;113898;-71
2022/10/10 04:29:51;;;;;;;16.30;6.53;;;;;;;10.94;55.74;101293.25;4968117;28;113652;-71
2022/10/10 04:32:18;;;;;;;9.02;5.35;;;;;;;10.95;55.91;101295.00;4967802;28;123885;-71
2022/10/10 04:34:45;;;;;;;8.95;5.25;;;;;;;10.97;55.57;101293.16;4934478;28;123937;-71
2022/10/10 04:37:12;;;;;;;9.82;5.57;;;;;;;10.99;55.98;101296.59;4950887;28;115094;-71
2022/10/10 04:39:39;;;;;;;10.00;5.70;;;;;;;11.01;55.71;101284.16;4968319;28;113672;-71
2022/10/10 04:42:06;;;;;;;9.85;5.53;;;;;;;11.02;55.79;101285.88;4950690;28;124420;-71
2022/10/10 04:44:33;;;;;;;11.68;5.63;;;;;;;11.02;55.83;101283.22;4950739;28;123540;-71
2022/10/10 04:47:00;;;;;;;9.18;6.00;;;;;;;11.04;55.81;101283.19;4950047;28;113403;-71
2022/10/10 04:49:27;;;;;;;9.15;5.70;;;;;;;11.06;55.98;101286.63;4968599;28;114436;-71
2022/10/10 04:51:54;;;;;;;9.15;5.53;;;;;;;11.07;55.80;101289.19;4947604;28;123486;-71
2022/10/10 04:54:21;;;;;;;9.68;5.68;;;;;;;11.08;55.76;101285.63;4968222;28;123649;-71
2022/10/10 04:56:48;;;;;;;9.27;5.53;;;;;;;11.09;55.69;101286.47;4966609;28;115368;-71
2022/10/10 04:59:15;;;;;;;8.93;6.18;;;;;;;11.09;55.77;101287.38;4950873;28;114679;-71
2022/10/10 05:01:42;;;;;;;8.57;5.93;;;;;;;11.10;55.97;101289.09;4971163;28;124138;-71
2022/10/10 05:04:10;;;;;;;10.95;6.18;;;;;;;11.11;55.79;101284.63;4971218;28;124251;-71
2022/10/10 05:06:37;;;;;;;9.48;6.28;;;;;;;11.10;55.76;101289.09;4950404;28;112818;-71
2022/10/10 05:09:04;;;;;;;13.32;6.47;;;;;;;11.12;55.71;101285.53;4972070;28;113955;-70
2022/10/10 05:11:31;;;;;;;13.38;6.57;;;;;;;11.10;55.57;101283.78;4969282;28;124589;-71
2022/10/10 05:13:58;;;;;;;9.90;6.43;;;;;;;11.12;55.88;101285.53;4940500;28;123582;-71
2022/10/10 05:16:25;;;;;;;10.68;6.43;;;;;;;11.09;55.76;101284.72;4970852;28;114561;-70
2022/10/10 05:18:52;;;;;;;14.55;5.75;;;;;;;11.08;55.94;101285.63;4971483;28;115454;-71
2022/10/10 05:21:19;;;;;;;8.57;5.80;;;;;;;11.06;55.64;101276.88;4970440;28;123965;-71
2022/10/10 05:23:46;;;;;;;10.75;5.78;;;;;;;11.05;55.63;101275.13;4971205;28;123771;-71
2022/10/10 05:26:13;;;;;;;9.40;5.88;;;;;;;11.04;55.90;101278.72;4952657;28;114562;-71
2022/10/10 05:28:40;;;;;;;8.82;5.63;;;;;;;11.04;56.00;101284.03;4970552;28;113606;-71
2022/10/10 05:31:07;;;;;;;9.20;5.28;;;;;;;11.03;56.15;101290.25;4952867;28;123545;-71
2022/10/10 05:33:34;;;;;;;10.45;6.03;;;;;;;11.02;55.77;101285.00;4970575;28;124555;-71
2022/10/10 05:36:06;;;;;;;9.98;6.10;;;;;;;11.00;55.91;101287.72;4971141;28;114416;-71
2022/10/10 05:38:33;;;;;;;11.00;5.65;;;;;;;10.99;55.94;101283.34;4969389;28;113941;-71
2022/10/10 05:41:01;;;;;;;8.38;5.80;;;;;;;10.99;56.08;101280.69;4970484;28;124018;-71
2022/10/10 05:43:28;;;;;;;11.50;6.15;;;;;;;10.99;56.10;101283.34;4952057;28;123251;-71
2022/10/10 05:45:55;;;;;;;11.07;6.40;;;;;;;10.99;56.33;101286.00;4969584;28;115204;-71
2022/10/10 05:48:23;;;;;;;9.07;6.38;;;;;;;11.01;56.22;101288.59;4969905;28;115662;-72
2022/10/10 05:50:54;;;;;;;11.50;6.55;;;;;;;11.00;56.42;101282.44;4970492;28;124236;-71
2022/10/10 05:53:23;;;;;;;10.07;6.63;;;;;;;11.01;56.15;101289.44;4959190;28;123154;-72
2022/10/10 05:55:51;;;;;;;10.25;6.10;;;;;;;10.99;56.03;101280.69;4953474;28;113500;-71
2022/10/10 05:58:18;;;;;;;13.00;7.18;;;;;;;10.98;56.24;101281.63;4974156;28;113864;-70
2022/10/10 06:00:46;;;;;;;11.70;6.38;;;;;;;10.97;56.24;101287.84;4971185;28;123874;-70
2022/10/10 06:03:16;;;;;;;12.45;6.82;;;;;;;10.97;56.50;101282.53;4951465;28;122881;-71
2022/10/10 06:05:44;;;;;;;12.10;6.53;;;;;;;10.96;56.42;101280.81;4952418;28;113414;-72
2022/10/10 06:08:11;;;;;;;11.85;6.90;;;;;;;10.97;56.60;101282.53;4954491;28;113879;-72
2022/10/10 06:10:41;;;;;;;10.77;6.30;;;;;;;10.97;56.61;101287.84;4969819;28;124719;-72
2022/10/10 06:13:10;;;;;;;9.85;7.05;;;;;;;10.98;56.66;101292.25;4970162;28;123816;-71
2022/10/10 06:15:37;;;;;;;10.50;6.50;;;;;;;10.99;56.51;101286.00;4970281;28;113981;-72
2022/10/10 06:18:04;;;;;;;8.55;6.63;;;;;;;11.00;56.76;101287.72;4953100;28;114547;-72
2022/10/10 06:20:39;;;;;;;9.95;6.55;;;;;;;11.01;56.98;101289.44;4969937;28;124292;-71
2022/10/10 06:23:07;;;;;;;11.43;6.53;;;;;;;11.03;56.85;101292.91;4954216;28;124632;-71
2022/10/10 06:25:36;;;;;;;12.23;6.70;;;;;;;11.05;56.90;101291.03;4952080;28;114103;-73
2022/10/10 06:28:09;;;;;;;10.70;6.97;;;;;;;11.08;57.04;101290.94;4968598;28;114224;-71
2022/10/10 06:30:43;;;;;;;9.70;6.45;;;;;;;11.10;57.23;101299.69;4950193;28;124375;-71
2022/10/10 06:33:11;;;;;;;12.50;6.82;;;;;;;11.14;57.10;101302.22;4951325;28;123268;-71
2022/10/10 06:35:41;;;;;;;11.82;6.47;;;;;;;11.17;57.28;101299.44;4965976;28;115085;-71
2022/10/10 06:38:08;;;;;;;10.48;6.40;;;;;;;11.21;57.15;101303.72;4952498;28;114688;-71
2022/10/10 06:40:35;;;;;;;12.90;6.68;;;;;;;11.26;57.20;101297.28;4967971;28;124943;-71
2022/10/10 06:43:03;;;;;;;11.38;6.93;;;;;;;11.30;57.33;101300.66;4970039;28;123789;-68
2022/10/10 06:45:38;;;;;;;10.70;6.45;;;;;;;11.33;57.49;101305.00;4968974;28;114588;-69
2022/10/10 06:48:05;;;;;;;13.60;6.50;;;;;;;11.40;57.56;101307.31;4959791;28;114005;-70
2022/10/10 06:50:33;;;;;;;13.48;6.32;;;;;;;11.46;57.64;101307.06;4970150;28;123832;-70
2022/10/10 06:53:00;;;;;;;10.25;6.45;;;;;;;11.53;57.36;101317.41;4967595;28;124902;-70
2022/10/10 06:55:27;;;;;;;10.35;6.63;;;;;;;11.59;57.61;101319.84;4959706;28;114213;-70
2022/10/10 06:57:55;;;;;;;12.63;6.78;;;;;;;11.64;57.57;101315.19;4970083;28;113828;-70
2022/10/10 07:00:22;;;;;;;11.45;7.05;;;;;;;11.68;57.51;101316.81;4952073;28;123254;-70
2022/10/10 07:02:49;;;;;;;9.77;7.20;;;;;;;11.73;57.28;101306.84;4970587;28;123491;-70
2022/10/10 07:05:17;;;;;;;11.35;7.40;;;;;;;11.80;57.67;101310.09;4956612;28;114283;-70
2022/10/10 07:07:44;;;;;;;12.85;7.18;;;;;;;11.86;57.59;101310.69;4953283;28;114219;-70
2022/10/10 07:10:14;;;;;;;11.10;6.63;;;;;;;11.92;57.90;101308.75;4952561;28;124735;-69
2022/10/10 07:12:41;;;;;;;12.23;6.68;;;;;;;11.99;57.73;101310.22;4956654;28;123686;-70
2022/10/10 07:15:11;;;;;;;14.40;6.93;;;;;;;12.07;57.88;101308.06;4938989;28;112309;-70
2022/10/10 07:17:38;;;;;;;12.13;6.72;;;;;;;12.15;58.15;101311.25;4970908;28;114485;-70
2022/10/10 07:20:06;;;;;;;11.30;7.10;;;;;;;12.24;58.16;101310.88;4952128;28;125298;-70
2022/10/10 07:22:33;;;;;;;11.25;6.45;;;;;;;12.35;58.26;101306.84;4951877;28;124460;-70
2022/10/10 07:25:00;;;;;;;14.23;7.18;;;;;;;12.43;58.41;101321.53;4951530;28;114391;-70
2022/10/10 07:27:27;;;;;;;13.80;6.90;;;;;;;12.54;58.42;101312.19;4970091;28;114963;-70
2022/10/10 07:29:54;;;;;;;9.63;6.45;;;;;;;12.64;58.53;101314.38;4969846;28;124047;-70
2022/10/10 07:32:21;;;;;;;12.63;7.03;;;;;;;12.77;58.53;101313.78;4944817;28;123871;-70
2022/10/10 07:34:49;;;;;;;10.43;6.80;;;;;;;12.88;58.73;101316.78;4964471;28;114753;-70
2022/10/10 07:37:16;;;;;;;10.50;6.75;;;;;;;13.00;58.84;101320.69;4970346;28;113133;-70
2022/10/10 07:39:44;;;;;;;13.98;7.03;;;;;;;13.11;58.57;101328.13;4970618;28;124004;-70
2022/10/10 07:42:11;;;;;;;12.52;6.70;;;;;;;13.22;58.52;101315.19;4952115;28;124232;-70
2022/10/10 07:44:38;;;;;;;12.65;7.00;;;;;;;13.32;58.69;101321.81;4970466;28;114441;-70
2022/10/10 07:47:05;;;;;;;13.15;6.55;;;;;;;13.46;58.40;101334.44;4969751;28;114128;-70
2022/10/10 07:49:32;;;;;;;12.63;6.80;;;;;;;13.57;58.85;101333.91;4970931;28;124136;-70
2022/10/10 07:51:59;;;;;;;11.23;6.50;;;;;;;13.70;58.70;101343.00;4980247;28;123635;-70
2022/10/10 07:54:28;;;;;;;10.40;6.78;;;;;;;13.81;58.67;101340.66;4964932;28;115791;-70
2022/10/10 07:56:56;;;;;;;14.75;7.10;;;;;;;13.94;58.73;101345.38;4981943;28;114370;-69
2022/10/10 07:59:23;;;;;;;9.75;6.38;;;;;;;14.06;58.66;101344.75;4989910;28;124830;-68
2022/10/10 08:01:51;;;;;;;11.65;6.40;;;;;;;14.18;58.59;101338.78;4975453;28;124732;-68
2022/10/10 08:04:18;;;;;;;10.95;6.75;;;;;;;14.32;58.58;101345.19;4986993;28;114622;-69
2022/10/10 08:06:45;;;;;;;13.45;6.80;;;;;;;14.46;58.43;101347.97;4955452;28;113500;-69
2022/10/10 08:09:12;;;;;;;11.45;6.50;;;;;;;14.58;58.65;101346.50;4941616;28;123672;-69
2022/10/10 08:11:39;;;;;;;11.13;6.78;;;;;;;14.71;58.36;101346.69;4950917;28;122861;-69
2022/10/10 08:14:06;;;;;;;9.80;6.22;;;;;;;14.84;58.33;101353.06;4968009;28;115968;-69
2022/10/10 08:16:33;;;;;;;10.50;6.28;;;;;;;14.98;58.30;101350.50;4969106;28;114436;-69
2022/10/10 08:19:00;;;;;;;9.25;5.78;;;;;;;15.12;58.13;101352.41;4963042;28;123986;-69
2022/10/10 08:21:27;;;;;;;9.48;5.68;;;;;;;15.25;58.25;101349.91;4950286;28;124622;-69
2022/10/10 08:23:54;;;;;;;10.05;6.30;;;;;;;15.40;58.15;101350.00;4969258;28;114177;-70
2022/10/10 08:26:21;;;;;;;9.93;6.00;;;;;;;15.54;58.05;101347.41;4969115;28;114595;-69
2022/10/10 08:28:48;;;;;;;8.75;5.97;;;;;;;15.67;58.08;101359.09;4957931;28;123627;-69
2022/10/10 08:31:20;;;;;;;11.18;5.40;;;;;;;15.83;57.83;101352.88;4970229;28;124882;-70
2022/10/10 08:33:49;;;;;;;10.18;5.63;;;;;;;15.98;57.67;101356.44;4976433;28;114606;-70
2022/10/10 08:36:19;;;;;;;9.73;5.50;;;;;;;16.12;57.57;101349.31;4979162;28;113891;-69
2022/10/10 08:38:46;;;;;;;8.55;5.15;;;;;;;16.27;57.14;101346.66;4944710;28;123379;-69
2022/10/10 08:41:35;;;;;;;8.05;5.10;;;;;;;16.42;56.88;101343.03;4952728;28;125978;-69
2022/10/10 08:44:12;;;;;;;9.50;5.25;;;;;;;16.52;56.54;101346.88;4952906;28;114422;-69
2022/10/10 08:46:52;;;;;;;9.85;5.10;;;;;;;16.63;56.64;101348.00;4958912;28;114545;-69
2022/10/10 08:49:26;;;;;;;11.80;5.10;;;;;;;16.74;56.50;101345.53;4952926;28;123643;-69
2022/10/10 08:51:59;;;;;;;9.95;4.95;;;;;;;16.87;56.32;101346.50;4952390;28;124015;-69
2022/10/10 08:54:28;;;;;;;7.82;4.57;;;;;;;17.02;56.00;101343.81;4970487;28;114425;-69
2022/10/10 08:56:59;;;;;;;7.32;4.90;;;;;;;17.14;55.80;101353.75;4971329;28;113488;-69
2022/10/10 08:59:32;;;;;;;8.77;4.93;;;;;;;17.25;55.50;101345.88;4972041;28;124498;-70
2022/10/10 09:02:24;;;;;;;10.20;4.88;;;;;;;17.36;55.33;101346.97;4959820;28;123789;-69
2022/10/10 09:05:09;;;;;;;7.70;4.63;;;;;;;17.46;55.25;101348.06;4955826;28;115581;-69
2022/10/10 09:07:57;;;;;;;7.47;4.80;;;;;;;17.55;54.77;101352.81;4953661;28;114687;-69
2022/10/10 09:10:30;;;;;;;9.77;5.28;;;;;;;17.63;54.81;101350.53;4976174;28;124611;-69
2022/10/10 09:13:07;;;;;;;8.40;5.03;;;;;;;17.71;54.76;101347.31;4978802;28;122984;-69
2022/10/10 09:15:50;;;;;;;9.98;4.90;;;;;;;17.84;54.59;101358.09;4944619;28;115124;-69
2022/10/10 09:18:40;;;;;;;9.98;5.18;;;;;;;17.93;54.20;101352.09;4971391;28;114131;-70
2022/10/10 09:21:21;;;;;;;12.55;5.13;;;;;;;18.02;54.37;101367.56;4972153;28;123808;-69
2022/10/10 09:24:08;;;;;;;10.63;5.20;;;;;;;18.11;54.17;101370.59;4951918;28;123505;-70
2022/10/10 09:26:42;;;;;;;10.90;4.55;;;;;;;18.22;53.93;101362.69;4967895;28;114933;-70
2022/10/10 09:29:34;;;;;;;9.32;5.10;;;;;;;18.33;53.93;101365.47;4973556;28;114176;-70
2022/10/10 09:32:17;;;;;;;9.05;4.57;;;;;;;18.44;53.75;101372.75;4974615;28;123961;-69
2022/10/10 09:34:46;;;;;;;10.13;4.90;;;;;;;18.55;53.29;101369.31;4970061;28;124024;-69
2022/10/10 09:37:22;;;;;;;10.80;5.05;;;;;;;18.64;53.18;101368.69;4970869;28;113577;-69
2022/10/10 09:40:21;;;;;;;7.30;4.50;;;;;;;18.72;53.08;101366.28;4970030;28;114450;-70
2022/10/10 09:42:49;;;;;;;8.60;4.15;;;;;;;18.82;53.04;101372.78;4950776;28;122152;-70
2022/10/10 09:45:27;;;;;;;8.45;4.20;;;;;;;18.90;52.66;101368.69;4966348;28;123831;-70
2022/10/10 09:47:54;;;;;;;9.75;4.57;;;;;;;18.98;52.31;101371.66;4972248;28;114246;-70
2022/10/10 09:50:22;;;;;;;8.77;4.15;;;;;;;19.03;52.33;101375.72;4972588;28;114156;-70
2022/10/10 09:52:51;;;;;;;9.98;4.88;;;;;;;19.09;52.16;101379.81;4969119;28;123805;-70
2022/10/10 09:55:29;;;;;;;10.20;4.78;;;;;;;19.15;52.36;101384.72;4923161;28;124028;-70
2022/10/10 09:58:03;;;;;;;10.73;4.90;;;;;;;19.23;52.44;101398.47;4966012;28;115147;-70
2022/10/10 10:00:35;;;;;;;7.50;4.75;;;;;;;19.35;52.29;101390.47;4971727;28;114824;-70
2022/10/10 10:03:03;;;;;;;8.40;4.78;;;;;;;19.45;52.13;101391.50;4970009;28;124254;-70
2022/10/10 10:05:30;;;;;;;10.55;5.10;;;;;;;19.54;52.01;101396.19;4953068;28;123010;-70
2022/10/10 10:07:57;;;;;;;9.68;4.45;;;;;;;19.62;51.55;101399.16;4972127;28;114390;-70
2022/10/10 10:10:26;;;;;;;9.15;4.60;;;;;;;19.71;51.61;101396.78;4965779;28;113845;-70
2022/10/10 10:12:54;;;;;;;8.65;4.50;;;;;;;19.78;51.42;101387.31;4967120;28;123803;-70
2022/10/10 10:15:24;;;;;;;9.45;4.82;;;;;;;19.84;51.24;101386.84;4954715;28;123791;-71
2022/10/10 10:18:18;;;;;;;9.65;4.50;;;;;;;19.93;51.41;101386.16;4946475;28;113457;-70
2022/10/10 10:20:52;;;;;;;10.40;4.60;;;;;;;20.00;50.92;101384.72;4926422;28;112612;-70
2022/10/10 10:23:23;;;;;;;7.90;4.35;;;;;;;20.07;50.78;101392.31;4952015;28;123195;-70
2022/10/10 10:26:02;;;;;;;7.43;4.20;;;;;;;20.13;50.76;101397.22;4962677;28;124343;-71
2022/10/10 10:28:29;;;;;;;7.97;4.18;;;;;;;20.15;50.49;101385.34;4973608;28;114719;-70
2022/10/10 10:30:57;;;;;;;8.57;4.05;;;;;;;20.18;50.42;101395.03;4969924;28;113999;-70
2022/10/10 10:33:39;;;;;;;9.85;4.13;;;;;;;20.22;50.21;101385.75;4964530;28;124086;-70
2022/10/10 10:36:16;;;;;;;9.10;4.18;;;;;;;20.26;50.33;101387.22;4981798;28;123218;-70
2022/10/10 10:38:54;;;;;;;9.90;4.28;;;;;;;20.29;50.22;101387.00;4952809;28;114020;-70
2022/10/10 10:41:32;;;;;;;7.25;3.53;;;;;;;20.33;49.92;101393.00;4971026;28;114251;-70
2022/10/10 10:44:19;;;;;;;9.90;4.13;;;;;;;20.35;50.20;101397.28;4969351;28;124502;-70
2022/10/10 10:47:13;;;;;;;9.23;3.70;;;;;;;20.39;49.89;101396.06;4945160;28;123977;-71
2022/10/10 10:50:05;;;;;;;9.10;4.05;;;;;;;20.46;50.02;101398.28;4969996;28;115342;-70
2022/10/10 10:52:56;;;;;;;8.73;3.83;;;;;;;20.51;49.98;101396.06;4949717;28;113871;-70
2022/10/10 10:55:42;;;;;;;6.18;3.67;;;;;;;20.56;49.86;101399.25;4953620;28;123610;-70
2022/10/10 10:58:41;;;;;;;9.27;3.47;;;;;;;20.64;49.67;101396.00;4969895;28;124518;-70
2022/10/10 11:01:32;;;;;;;8.60;3.40;;;;;;;20.69;49.60;101400.03;4965491;28;114384;-71
2022/10/10 11:04:53;;;;;;;9.68;3.45;;;;;;;20.83;49.62;101406.16;4969831;28;113981;-70
2022/10/10 11:07:51;;;;;;;7.05;3.40;;;;;;;20.97;49.15;101408.63;4971673;28;124539;-70
2022/10/10 11:10:33;;;;;;;8.25;3.60;;;;;;;21.04;48.74;101409.84;4963636;28;123845;-70
2022/10/10 11:13:21;;;;;;;11.63;3.50;;;;;;;21.12;48.93;101418.16;4970668;28;114142;-70
2022/10/10 11:16:02;;;;;;;8.38;3.50;;;;;;;21.22;48.99;101418.28;4975955;28;113029;-70
2022/10/10 11:18:58;;;;;;;8.60;3.30;;;;;;;21.34;48.63;101427.19;4947861;28;123786;-70
2022/10/10 11:21:30;;;;;;;9.00;3.15;;;;;;;21.45;48.55;101431.75;4968494;28;123941;-71
2022/10/10 11:24:05;;;;;;;7.53;3.20;;;;;;;21.51;48.13;101423.16;4948532;28;112819;-71
2022/10/10 11:26:41;;;;;;;8.75;3.60;;;;;;;21.52;47.75;101428.41;4963139;28;113955;-70
2022/10/10 11:29:12;;;;;;;10.18;3.67;;;;;;;21.51;47.66;101429.41;4966807;28;124824;-71
2022/10/10 11:31:46;;;;;;;7.45;3.50;;;;;;;21.52;47.44;101425.72;4949534;28;123040;-70
2022/10/10 11:34:36;;;;;;;5.50;3.42;;;;;;;21.55;47.62;101425.47;4950957;28;113731;-70
2022/10/10 11:37:10;;;;;;;7.22;3.35;;;;;;;21.61;47.38;101429.50;4964512;28;114256;-71